createdAt,value
2022-10-23T00:00:05.852Z,88.36
2022-10-23T00:03:08.866Z,88.52
2022-10-23T00:06:11.384Z,89.09
2022-10-23T00:09:16.934Z,88.61
2022-10-23T00:12:18.949Z,90.24
2022-10-23T00:15:22.573Z,90.56
2022-10-23T00:18:24.167Z,91.54
2022-10-23T00:21:26.468Z,91.26
2022-10-23T00:24:28.101Z,88.00
2022-10-23T00:27:29.752Z,86.98
2022-10-23T00:30:31.445Z,86.67
2022-10-23T00:33:33.403Z,87.14
2022-10-23T00:36:35.529Z,87.47
2022-10-23T00:39:37.177Z,87.18
2022-10-23T00:42:38.919Z,88.56
2022-10-23T00:45:40.946Z,87.72
2022-10-23T00:48:42.544Z,88.94
2022-10-23T00:51:51.252Z,89.04
2022-10-23T00:54:52.950Z,88.55
2022-10-23T00:57:54.986Z,88.65
2022-10-23T01:00:57.066Z,88.75
2022-10-23T01:03:58.966Z,89.73
2022-10-23T01:07:20.349Z,89.76
2022-10-23T01:10:45.084Z,90.87
2022-10-23T01:17:19.744Z,90.22
2022-10-23T01:20:39.248Z,90.83
2022-10-23T01:24:00.515Z,91.98
2022-10-23T01:27:14.905Z,92.07
2022-10-23T01:30:18.007Z,91.43
2022-10-23T01:33:34.035Z,88.33
2022-10-23T01:36:39.689Z,89.12
2022-10-23T01:39:47.667Z,89.60
2022-10-23T01:42:55.030Z,89.16
2022-10-23T01:46:05.697Z,88.67
2022-10-23T01:49:14.650Z,89.49
2022-10-23T01:52:19.991Z,91.61
2022-10-23T01:55:25.339Z,87.57
2022-10-23T01:58:29.729Z,88.41
2022-10-23T02:01:33.261Z,87.32
2022-10-23T02:04:40.743Z,87.49
2022-10-23T02:07:43.255Z,87.85
2022-10-23T02:10:53.866Z,89.92
2022-10-23T02:14:24.346Z,90.72
2022-10-23T02:17:55.224Z,91.42
2022-10-23T02:21:12.168Z,90.94
2022-10-23T02:24:18.245Z,91.59
2022-10-23T02:27:39.962Z,92.05
2022-10-23T02:30:46.104Z,92.60
2022-10-23T02:33:48.214Z,92.95
2022-10-23T02:36:50.040Z,93.29
2022-10-23T02:39:55.042Z,92.88
2022-10-23T02:43:32.279Z,92.25
2022-10-23T02:46:52.859Z,92.26
2022-10-23T02:50:28.430Z,92.19
2022-10-23T02:53:36.609Z,91.61
2022-10-23T02:57:04.025Z,91.31
2022-10-23T03:00:08.499Z,90.33
2022-10-23T03:03:14.784Z,89.76
2022-10-23T03:06:16.979Z,89.57
2022-10-23T03:09:18.779Z,89.21
2022-10-23T03:12:20.474Z,89.16
2022-10-23T03:15:22.402Z,88.35
2022-10-23T03:18:25.690Z,88.28
2022-10-23T03:21:27.475Z,89.10
2022-10-23T03:24:29.137Z,90.22
2022-10-23T03:27:31.945Z,92.14
2022-10-23T03:30:37.696Z,92.60
2022-10-23T03:33:39.981Z,93.03
2022-10-23T03:36:46.735Z,93.10
2022-10-23T03:39:49.422Z,93.70
2022-10-23T03:42:51.184Z,94.21
2022-10-23T03:45:56.323Z,92.70
2022-10-23T03:49:00.531Z,90.81
2022-10-23T03:52:02.296Z,91.90
2022-10-23T03:55:04.527Z,91.10
2022-10-23T03:58:06.341Z,91.89
2022-10-23T04:01:08.145Z,89.62
2022-10-23T04:04:11.967Z,90.64
2022-10-23T04:07:16.574Z,91.00
2022-10-23T04:10:18.300Z,91.73
2022-10-23T04:13:19.964Z,89.72
2022-10-23T04:16:22.250Z,87.37
2022-10-23T04:19:24.070Z,86.33
2022-10-23T04:22:28.292Z,82.77
2022-10-23T04:25:30.332Z,81.18
2022-10-23T04:28:31.972Z,82.40
2022-10-23T04:31:34.550Z,85.51
2022-10-23T04:34:36.338Z,86.81
2022-10-23T04:37:38.788Z,87.38
2022-10-23T04:40:41.815Z,88.07
2022-10-23T04:43:43.566Z,88.51
2022-10-23T04:46:48.952Z,88.92
2022-10-23T04:49:50.994Z,89.47
2022-10-23T04:52:57.864Z,89.23
2022-10-23T04:56:00.232Z,89.04
2022-10-23T04:59:12.043Z,89.04
2022-10-23T05:02:14.969Z,89.70
2022-10-23T05:05:17.619Z,89.28
2022-10-23T05:08:31.610Z,89.68
2022-10-23T05:11:48.977Z,89.70
2022-10-23T05:14:50.952Z,89.56
2022-10-23T05:17:57.952Z,89.43
2022-10-23T05:21:05.364Z,90.77
2022-10-23T05:24:07.497Z,91.57
2022-10-23T05:27:09.817Z,91.40
2022-10-23T05:30:14.974Z,90.50
2022-10-23T05:33:17.508Z,93.16
2022-10-23T05:36:19.436Z,93.34
2022-10-23T05:39:25.020Z,93.25
2022-10-23T05:42:27.968Z,94.38
2022-10-23T05:45:32.151Z,92.49
2022-10-23T05:48:56.863Z,93.01
2022-10-23T05:52:20.381Z,94.29
2022-10-23T05:55:41.203Z,94.77
2022-10-23T05:58:51.569Z,95.25
2022-10-23T06:02:11.731Z,94.97
2022-10-23T06:05:24.567Z,92.96
2022-10-23T06:08:45.051Z,90.18
2022-10-23T06:11:47.657Z,87.96
2022-10-23T06:14:54.773Z,89.85
2022-10-23T06:18:04.959Z,89.07
2022-10-23T06:21:10.508Z,88.41
2022-10-23T06:24:12.222Z,90.04
2022-10-23T06:27:36.690Z,91.27
2022-10-23T06:30:40.263Z,88.66
2022-10-23T06:33:42.486Z,86.74
2022-10-23T06:36:45.183Z,85.63
2022-10-23T06:40:10.609Z,85.83
2022-10-23T06:43:30.214Z,84.48
2022-10-23T06:46:51.601Z,84.17
2022-10-23T06:50:22.550Z,84.74
2022-10-23T06:53:24.933Z,84.73
2022-10-23T06:56:35.259Z,85.88
2022-10-23T06:59:40.525Z,86.55
2022-10-23T07:02:43.893Z,85.03
2022-10-23T07:05:47.367Z,87.92
2022-10-23T07:08:49.998Z,89.17
2022-10-23T07:12:17.739Z,89.14
2022-10-23T07:15:26.596Z,89.70
2022-10-23T07:18:28.926Z,89.69
2022-10-23T07:22:02.792Z,87.67
2022-10-23T07:25:30.665Z,84.77
2022-10-23T07:28:35.592Z,85.50
2022-10-23T07:31:37.846Z,85.15
2022-10-23T07:34:58.351Z,85.85
2022-10-23T07:38:06.180Z,85.36
2022-10-23T07:41:12.599Z,84.64
2022-10-23T07:44:15.550Z,84.40
2022-10-23T07:47:17.816Z,84.99
2022-10-23T07:50:23.813Z,85.45
2022-10-23T07:53:25.732Z,87.18
2022-10-23T07:56:32.698Z,86.15
2022-10-23T07:59:50.883Z,84.14
2022-10-23T08:02:56.069Z,85.85
2022-10-23T08:06:00.263Z,83.71
2022-10-23T08:09:06.268Z,82.10
2022-10-23T08:12:10.624Z,80.64
2022-10-23T08:15:13.151Z,80.29
2022-10-23T08:18:26.985Z,80.52
2022-10-23T08:21:31.464Z,77.54
2022-10-23T08:24:33.201Z,77.05
2022-10-23T08:27:34.904Z,76.10
2022-10-23T08:30:37.505Z,77.25
2022-10-23T08:33:39.742Z,78.05
2022-10-23T08:36:42.310Z,77.59
2022-10-23T08:39:44.096Z,76.19
2022-10-23T08:43:01.299Z,74.39
2022-10-23T08:46:09.561Z,72.57
2022-10-23T08:49:54.693Z,70.77
2022-10-23T08:53:07.031Z,70.08
2022-10-23T08:56:22.864Z,69.01
2022-10-23T08:59:33.264Z,70.27
2022-10-23T09:02:55.253Z,70.81
2022-10-23T09:06:11.999Z,70.17
2022-10-23T09:09:52.846Z,70.81
2022-10-23T09:13:01.743Z,67.18
2022-10-23T09:16:14.466Z,66.26
2022-10-23T09:19:27.255Z,65.96
2022-10-23T09:22:29.253Z,67.66
2022-10-23T09:25:37.118Z,69.56
2022-10-23T09:28:46.338Z,70.41
2022-10-23T09:31:53.253Z,71.94
2022-10-23T09:34:55.592Z,71.14
2022-10-23T09:37:58.181Z,68.79
2022-10-23T09:41:13.303Z,70.13
2022-10-23T09:44:30.619Z,70.88
2022-10-23T09:47:32.780Z,70.33
2022-10-23T09:50:34.433Z,70.18
2022-10-23T09:53:48.142Z,69.36
2022-10-23T09:56:50.216Z,72.12
2022-10-23T09:59:54.495Z,68.48
2022-10-23T10:03:03.307Z,67.72
2022-10-23T10:06:32.458Z,67.76
2022-10-23T10:09:34.440Z,63.81
2022-10-23T10:12:37.761Z,63.15
2022-10-23T10:15:55.552Z,65.56
2022-10-23T10:19:11.379Z,68.88
2022-10-23T10:22:31.998Z,68.02
2022-10-23T10:25:51.293Z,68.01
2022-10-23T10:30:04.954Z,68.14
2022-10-23T10:33:41.987Z,67.16
2022-10-23T10:36:46.622Z,67.58
2022-10-23T10:39:57.550Z,68.23
2022-10-23T10:43:28.588Z,69.29
2022-10-23T10:46:33.143Z,66.44
2022-10-23T10:49:55.483Z,67.58
2022-10-23T10:53:17.495Z,66.94
2022-10-23T10:56:22.567Z,69.48
2022-10-23T10:59:29.537Z,69.41
2022-10-23T11:02:49.756Z,70.19
2022-10-23T11:05:53.574Z,69.06
2022-10-23T11:09:03.975Z,71.23
2022-10-23T11:12:26.730Z,68.07
2022-10-23T11:15:37.026Z,65.93
2022-10-23T11:18:46.476Z,66.50
2022-10-23T11:22:03.217Z,67.06
2022-10-23T11:25:20.497Z,69.20
2022-10-23T11:28:43.742Z,68.06
2022-10-23T11:32:08.740Z,69.35
2022-10-23T11:35:48.068Z,68.91
2022-10-23T11:38:51.122Z,68.86
2022-10-23T11:42:20.894Z,69.23
2022-10-23T11:45:36.494Z,69.58
2022-10-23T11:48:41.167Z,71.67
2022-10-23T11:51:42.838Z,71.42
2022-10-23T11:54:44.439Z,70.61
2022-10-23T11:58:08.138Z,70.39
2022-10-23T12:01:42.730Z,70.62
2022-10-23T12:04:51.920Z,69.80
2022-10-23T12:08:00.079Z,70.93
2022-10-23T12:11:01.915Z,71.30
2022-10-23T12:14:03.594Z,69.90
2022-10-23T12:17:23.742Z,69.35
2022-10-23T12:20:38.202Z,71.22
2022-10-23T12:24:03.661Z,70.95
2022-10-23T12:27:20.294Z,71.63
2022-10-23T12:30:34.187Z,67.85
2022-10-23T12:33:46.876Z,66.99
2022-10-23T12:37:22.522Z,67.86
2022-10-23T12:40:29.862Z,68.09
2022-10-23T12:43:34.499Z,67.98
2022-10-23T12:46:40.416Z,70.44
2022-10-23T12:49:49.382Z,70.59
2022-10-23T12:53:03.117Z,71.12
2022-10-23T12:56:06.761Z,70.44
2022-10-23T12:59:16.586Z,69.42
2022-10-23T13:02:29.204Z,69.88
2022-10-23T13:05:32.298Z,69.96
2022-10-23T13:08:40.317Z,69.54
2022-10-23T13:12:29.205Z,69.60
2022-10-23T13:15:39.112Z,71.42
2022-10-23T13:18:41.960Z,70.60
2022-10-23T13:21:46.518Z,71.21
2022-10-23T13:24:48.456Z,70.49
2022-10-23T13:27:50.368Z,71.84
2022-10-23T13:31:24.866Z,73.07
2022-10-23T13:34:29.168Z,72.34
2022-10-23T13:37:32.018Z,71.84
2022-10-23T13:40:33.825Z,71.35
2022-10-23T13:43:35.451Z,71.11
2022-10-23T13:46:37.090Z,71.55
2022-10-23T13:49:38.783Z,70.34
2022-10-23T13:52:40.389Z,72.79
2022-10-23T13:55:44.613Z,72.11
2022-10-23T13:58:46.662Z,73.14
2022-10-23T14:01:49.795Z,73.78
2022-10-23T14:04:52.442Z,75.07
2022-10-23T14:07:54.065Z,74.74
2022-10-23T14:10:55.729Z,75.80
2022-10-23T14:13:57.428Z,75.56
2022-10-23T14:16:59.123Z,77.21
2022-10-23T14:20:02.170Z,76.06
2022-10-23T14:23:05.673Z,77.01
2022-10-23T14:26:10.280Z,79.46
2022-10-23T14:29:22.947Z,79.02
2022-10-23T14:32:25.650Z,77.06
2022-10-23T14:35:27.325Z,76.80
2022-10-23T14:38:29.486Z,76.06
2022-10-23T14:41:31.138Z,77.77
2022-10-23T14:44:32.973Z,79.73
2022-10-23T14:47:34.683Z,76.21
2022-10-23T14:50:42.246Z,78.23
2022-10-23T14:53:43.931Z,77.64
2022-10-23T14:56:45.585Z,76.09
2022-10-23T14:59:48.395Z,77.85
2022-10-23T15:02:50.061Z,77.16
2022-10-23T15:05:52.157Z,77.15
2022-10-23T15:08:57.227Z,77.41
2022-10-23T15:11:58.868Z,76.99
2022-10-23T15:15:00.529Z,78.69
2022-10-23T15:18:02.146Z,78.35
2022-10-23T15:21:08.620Z,78.56
2022-10-23T15:24:10.299Z,80.62
2022-10-23T15:27:11.954Z,79.71
2022-10-23T15:30:13.730Z,80.76
2022-10-23T15:33:19.175Z,80.21
2022-10-23T15:36:21.668Z,80.96
2022-10-23T15:39:29.122Z,82.60
2022-10-23T15:42:30.863Z,84.14
2022-10-23T15:45:32.954Z,84.73
2022-10-23T15:48:34.565Z,85.30
2022-10-23T15:51:37.147Z,86.23
2022-10-23T15:54:38.816Z,85.48
2022-10-23T15:57:41.112Z,86.96
2022-10-23T16:00:42.781Z,86.18
2022-10-23T16:03:44.815Z,85.38
2022-10-23T16:06:47.181Z,85.72
2022-10-23T16:09:48.978Z,87.18
2022-10-23T16:12:51.165Z,89.71
2022-10-23T16:15:54.105Z,88.47
2022-10-23T16:18:58.261Z,89.12
2022-10-23T16:21:59.896Z,90.26
2022-10-23T16:25:01.701Z,89.03
2022-10-23T16:28:04.045Z,78.23
2022-10-23T16:31:19.981Z,73.24
2022-10-23T16:34:22.763Z,74.65
2022-10-23T16:37:24.485Z,73.50
2022-10-23T16:40:30.819Z,76.11
2022-10-23T16:43:50.827Z,63.91
2022-10-23T16:47:11.150Z,50.01
2022-10-23T16:50:12.825Z,48.19
2022-10-23T16:53:14.416Z,49.78
2022-10-23T16:56:18.971Z,50.71
2022-10-23T16:59:20.742Z,52.20
2022-10-23T17:02:22.540Z,50.11
2022-10-23T17:05:24.490Z,48.43
2022-10-23T17:08:26.095Z,48.31
2022-10-23T17:11:30.828Z,50.38
2022-10-23T17:14:32.643Z,48.65
2022-10-23T17:17:34.250Z,49.79
2022-10-23T17:20:35.897Z,51.20
2022-10-23T17:23:37.530Z,51.75
2022-10-23T17:26:40.922Z,52.78
2022-10-23T17:29:42.507Z,54.44
2022-10-23T17:32:44.409Z,56.95
2022-10-23T17:35:46.459Z,58.05
2022-10-23T17:38:48.303Z,60.22
2022-10-23T17:41:50.274Z,65.62
2022-10-23T17:44:51.890Z,67.02
2022-10-23T17:47:53.679Z,68.86
2022-10-23T17:51:04.050Z,69.96
2022-10-23T17:54:08.477Z,71.07
2022-10-23T17:57:10.300Z,71.71
2022-10-23T18:00:12.426Z,71.26
2022-10-23T18:03:17.737Z,71.23
2022-10-23T18:06:29.582Z,72.06
2022-10-23T18:09:31.561Z,72.55
2022-10-23T18:12:33.386Z,71.98
2022-10-23T18:15:35.883Z,75.65
2022-10-23T18:18:39.187Z,76.84
2022-10-23T18:21:41.101Z,77.09
2022-10-23T18:24:42.822Z,74.72
2022-10-23T18:27:44.864Z,77.57
2022-10-23T18:30:48.127Z,78.64
2022-10-23T18:33:50.160Z,78.88
2022-10-23T18:36:53.853Z,74.36
2022-10-23T18:39:55.529Z,77.82
2022-10-23T18:42:57.261Z,74.52
2022-10-23T18:45:58.913Z,75.59
2022-10-23T18:49:00.908Z,75.50
2022-10-23T18:52:03.392Z,76.06
2022-10-23T18:55:07.521Z,76.16
2022-10-23T18:58:09.241Z,75.85
2022-10-23T19:01:11.073Z,72.96
2022-10-23T19:04:15.877Z,71.04
2022-10-23T19:07:17.978Z,70.07
2022-10-23T19:10:21.884Z,69.61
2022-10-23T19:13:23.583Z,71.20
2022-10-23T19:16:33.593Z,71.53
2022-10-23T19:19:43.534Z,68.58
2022-10-23T19:22:48.573Z,67.43
2022-10-23T19:25:50.363Z,66.58
2022-10-23T19:31:54.926Z,63.06
2022-10-23T19:34:56.694Z,60.49
2022-10-23T19:37:58.405Z,58.52
2022-10-23T19:41:00.032Z,57.02
2022-10-23T19:44:02.036Z,57.46
2022-10-23T19:47:04.149Z,55.38
2022-10-23T19:50:06.965Z,53.34
2022-10-23T19:53:08.817Z,54.63
2022-10-23T19:56:11.881Z,53.86
2022-10-23T19:59:13.762Z,53.97
2022-10-23T20:02:15.946Z,53.04
2022-10-23T20:05:18.219Z,50.10
2022-10-23T20:08:20.010Z,51.06
2022-10-23T20:11:30.620Z,51.11
2022-10-23T20:14:32.749Z,51.23
2022-10-23T20:17:34.478Z,51.88
2022-10-23T20:20:41.275Z,50.57
2022-10-23T20:23:44.086Z,50.30
2022-10-23T20:26:51.299Z,50.49
2022-10-23T20:29:53.045Z,48.98
2022-10-23T20:32:54.722Z,49.53
2022-10-23T20:39:07.009Z,46.70
2022-10-23T20:42:08.736Z,45.99
2022-10-23T20:45:10.783Z,46.73
2022-10-23T20:48:12.489Z,46.14
2022-10-23T20:51:16.761Z,46.31
2022-10-23T20:54:18.424Z,46.72
2022-10-23T20:57:21.317Z,46.46
2022-10-23T21:00:23.421Z,45.83
2022-10-23T21:03:25.123Z,46.37
2022-10-23T21:06:33.967Z,45.75
2022-10-23T21:09:42.638Z,45.71
2022-10-23T21:12:44.501Z,44.54
2022-10-23T21:15:46.301Z,44.41
2022-10-23T21:18:48.365Z,44.63
2022-10-23T21:21:50.106Z,44.25
2022-10-23T21:24:51.742Z,43.95
2022-10-23T21:27:53.345Z,43.86
2022-10-23T21:30:55.044Z,44.33
2022-10-23T21:33:56.672Z,43.39
2022-10-23T21:37:14.679Z,43.92
2022-10-23T21:40:16.787Z,44.13
2022-10-23T21:43:18.613Z,44.14
2022-10-23T21:46:21.052Z,44.00
2022-10-23T21:49:22.676Z,43.61
2022-10-23T21:52:24.301Z,44.65
2022-10-23T21:55:27.874Z,44.72
2022-10-23T21:58:29.578Z,44.53
2022-10-23T22:01:31.290Z,45.41
2022-10-23T22:04:33.140Z,44.91
2022-10-23T22:07:34.901Z,44.12
2022-10-23T22:10:36.661Z,44.68
2022-10-23T22:13:38.341Z,44.35
2022-10-23T22:16:42.065Z,44.76
2022-10-23T22:19:43.956Z,44.35
2022-10-23T22:22:45.597Z,45.29
2022-10-23T22:25:47.309Z,45.06
2022-10-23T22:28:50.282Z,45.55
2022-10-23T22:31:52.612Z,44.86
2022-10-23T22:34:54.307Z,45.30
2022-10-23T22:37:55.908Z,45.37
2022-10-23T22:41:00.133Z,46.06
2022-10-23T22:44:01.826Z,45.82
2022-10-23T22:47:03.712Z,46.00
2022-10-23T22:50:05.870Z,45.27
2022-10-23T22:53:07.541Z,46.26
2022-10-23T22:56:15.438Z,45.99
2022-10-23T22:59:17.204Z,46.18
2022-10-23T23:02:18.986Z,46.51
2022-10-23T23:05:20.721Z,46.23
2022-10-23T23:08:22.442Z,46.41
2022-10-23T23:11:24.161Z,46.69
2022-10-23T23:14:25.776Z,46.27
2022-10-23T23:17:27.464Z,46.18
2022-10-23T23:20:29.125Z,47.33
2022-10-23T23:23:31.054Z,47.17
2022-10-23T23:26:32.750Z,47.07
2022-10-23T23:29:34.442Z,47.91
2022-10-23T23:32:36.350Z,47.96
2022-10-23T23:35:43.111Z,48.56
2022-10-23T23:38:44.758Z,48.17
2022-10-23T23:41:46.398Z,48.55
2022-10-23T23:44:56.011Z,49.45
2022-10-23T23:48:09.744Z,49.20
2022-10-23T23:51:11.362Z,48.56
2022-10-23T23:54:13.082Z,48.90
2022-10-23T23:57:14.736Z,49.76
